Time;durP1;ratioP1;P1;durP2;ratioP2;P2;SDS_P1;SDS_P2;PMS_P1;PMS_P2;Temp;Humidity;BMP_temperature;BMP_pressure;BME280_temperature;BME280_humidity;BME280_pressure;Samples;Min_cycle;Max_cycle;Signal;HPM_P1;HPM_P2
2022/02/21 00:00:09;;;;;;;10.02;2.70;;;;;;;;;;5052651;28;20057;-75
2022/02/21 00:02:35;;;;;;;14.30;2.83;;;;;;;;;;5052915;28;20036;-76
2022/02/21 00:05:01;;;;;;;15.55;3.20;;;;;;;;;;5052883;28;20021;-76
2022/02/21 00:07:27;;;;;;;14.30;2.88;;;;;;;;;;5054434;28;20074;-76
2022/02/21 00:09:53;;;;;;;12.85;3.20;;;;;;;;;;5038507;28;20029;-74
2022/02/21 00:12:19;;;;;;;14.93;2.72;;;;;;;;;;5060855;28;20036;-74
2022/02/21 00:14:45;;;;;;;12.75;2.83;;;;;;;;;;5057499;28;20096;-75
2022/02/21 00:17:13;;;;;;;13.75;2.55;;;;;;;;;;5076196;28;20025;-75
2022/02/21 00:19:39;;;;;;;11.48;2.75;;;;;;;;;;5076619;28;20020;-75
2022/02/21 00:22:05;;;;;;;11.38;2.78;;;;;;;;;;5076066;28;20054;-75
2022/02/21 00:24:31;;;;;;;13.75;3.08;;;;;;;;;;5058169;28;20108;-74
2022/02/21 00:26:57;;;;;;;16.55;3.20;;;;;;;;;;5063443;28;20477;-74
2022/02/21 00:29:23;;;;;;;12.18;2.75;;;;;;;;;;5054383;28;20027;-74
2022/02/21 00:31:49;;;;;;;14.55;3.17;;;;;;;;;;5076151;28;20024;-75
2022/02/21 00:34:15;;;;;;;12.13;2.90;;;;;;;;;;5076266;28;20020;-75
2022/02/21 00:36:41;;;;;;;12.85;2.85;;;;;;;;;;5075888;28;20154;-75
2022/02/21 00:39:07;;;;;;;14.65;3.00;;;;;;;;;;5076043;28;20032;-76
2022/02/21 00:41:33;;;;;;;14.77;2.58;;;;;;;;;;5075681;28;20041;-75
2022/02/21 00:43:59;;;;;;;17.70;3.10;;;;;;;;;;5076150;28;20056;-75
2022/02/21 00:46:25;;;;;;;15.05;2.92;;;;;;;;;;5058027;28;20044;-75
2022/02/21 00:48:51;;;;;;;11.45;2.65;;;;;;;;;;5075843;28;20028;-75
2022/02/21 00:51:17;;;;;;;11.57;2.55;;;;;;;;;;5075533;28;20029;-74
2022/02/21 00:53:43;;;;;;;16.20;3.47;;;;;;;;;;5075932;28;20099;-75
2022/02/21 00:56:09;;;;;;;11.90;2.47;;;;;;;;;;5075410;28;20032;-75
2022/02/21 00:58:35;;;;;;;14.65;2.72;;;;;;;;;;5057717;28;20025;-72
2022/02/21 01:01:01;;;;;;;13.25;2.72;;;;;;;;;;5066718;28;20029;-72
2022/02/21 01:03:27;;;;;;;14.63;3.10;;;;;;;;;;5037824;28;20024;-73
2022/02/21 01:05:53;;;;;;;13.52;2.88;;;;;;;;;;5055532;28;20109;-73
2022/02/21 01:08:19;;;;;;;16.38;2.88;;;;;;;;;;5055554;28;20472;-73
2022/02/21 01:10:45;;;;;;;15.20;3.45;;;;;;;;;;5055216;28;20021;-74
2022/02/21 01:13:11;;;;;;;11.20;2.60;;;;;;;;;;5055063;28;20017;-73
2022/02/21 01:15:37;;;;;;;13.35;2.53;;;;;;;;;;5037462;28;20032;-73
2022/02/21 01:18:03;;;;;;;14.48;3.63;;;;;;;;;;5055314;28;20021;-73
2022/02/21 01:20:29;;;;;;;8.45;2.10;;;;;;;;;;5037285;28;20048;-73
2022/02/21 01:22:55;;;;;;;13.43;3.22;;;;;;;;;;5055083;28;20114;-72
2022/02/21 01:25:21;;;;;;;30.25;3.50;;;;;;;;;;5055473;28;20057;-83
2022/02/21 01:27:47;;;;;;;32.63;3.58;;;;;;;;;;5037267;28;20032;-72
2022/02/21 01:30:14;;;;;;;23.83;4.15;;;;;;;;;;5061852;28;20028;-74
2022/02/21 01:32:40;;;;;;;26.88;3.65;;;;;;;;;;5058975;28;20025;-72
2022/02/21 01:35:06;;;;;;;16.60;2.85;;;;;;;;;;5061192;28;20028;-71
2022/02/21 01:37:33;;;;;;;16.20;3.35;;;;;;;;;;5055046;28;20025;-72
2022/02/21 01:39:59;;;;;;;13.65;2.90;;;;;;;;;;5037041;28;20039;-72
2022/02/21 01:42:25;;;;;;;21.25;2.90;;;;;;;;;;5054712;28;20181;-74
2022/02/21 01:44:51;;;;;;;13.18;3.70;;;;;;;;;;5054840;28;20562;-73
2022/02/21 01:47:18;;;;;;;16.35;2.95;;;;;;;;;;5054972;28;20095;-72
2022/02/21 01:49:45;;;;;;;21.80;4.03;;;;;;;;;;5054793;28;20029;-72
2022/02/21 01:52:11;;;;;;;18.02;3.67;;;;;;;;;;5054513;28;20028;-77
2022/02/21 01:54:37;;;;;;;17.77;3.03;;;;;;;;;;5055196;28;20100;-72
2022/02/21 01:57:04;;;;;;;18.35;2.95;;;;;;;;;;5054498;28;20031;-73
2022/02/21 01:59:31;;;;;;;13.50;3.08;;;;;;;;;;5054483;28;20021;-73
2022/02/21 02:01:57;;;;;;;16.27;2.90;;;;;;;;;;5036317;28;20164;-72
2022/02/21 02:04:25;;;;;;;16.02;3.40;;;;;;;;;;5054318;28;20053;-73
2022/02/21 02:06:51;;;;;;;15.35;3.15;;;;;;;;;;5048228;28;20448;-72
2022/02/21 02:09:17;;;;;;;15.88;3.22;;;;;;;;;;5059549;28;20100;-73
2022/02/21 02:11:44;;;;;;;14.98;3.35;;;;;;;;;;5054703;28;20072;-74
2022/02/21 02:14:26;;;;;;;13.70;2.65;;;;;;;;;;5054732;28;20037;-72
2022/02/21 02:16:52;;;;;;;15.17;2.60;;;;;;;;;;5036674;28;20075;-73
2022/02/21 02:19:18;;;;;;;17.60;2.97;;;;;;;;;;5054811;28;20278;-73
2022/02/21 02:21:45;;;;;;;15.60;2.90;;;;;;;;;;5053628;28;20057;-73
2022/02/21 02:24:11;;;;;;;10.75;2.70;;;;;;;;;;5053753;28;20021;-72
2022/02/21 02:26:40;;;;;;;15.77;3.35;;;;;;;;;;5054238;28;20044;-72
2022/02/21 02:29:06;;;;;;;14.85;3.55;;;;;;;;;;5036852;28;20021;-72
2022/02/21 02:31:32;;;;;;;13.27;2.95;;;;;;;;;;5053017;28;20104;-72
2022/02/21 02:33:58;;;;;;;16.23;3.20;;;;;;;;;;5054276;28;20464;-73
2022/02/21 02:36:24;;;;;;;10.38;2.40;;;;;;;;;;5062094;28;20032;-72
2022/02/21 02:38:50;;;;;;;12.75;3.05;;;;;;;;;;5073688;28;20024;-73
2022/02/21 02:41:16;;;;;;;12.50;2.78;;;;;;;;;;5073842;28;20059;-72
2022/02/21 02:43:42;;;;;;;11.57;2.63;;;;;;;;;;5073666;28;20056;-72
2022/02/21 02:46:08;;;;;;;15.25;3.58;;;;;;;;;;5074183;28;20043;-72
2022/02/21 02:48:34;;;;;;;17.02;3.47;;;;;;;;;;5073949;28;20393;-72
2022/02/21 02:51:00;;;;;;;17.27;3.08;;;;;;;;;;5072927;28;20028;-73
2022/02/21 02:53:27;;;;;;;10.75;2.90;;;;;;;;;;5052096;28;20020;-74
2022/02/21 02:55:53;;;;;;;9.18;2.67;;;;;;;;;;5055575;28;20032;-74
2022/02/21 02:58:19;;;;;;;11.57;3.25;;;;;;;;;;5073485;28;20030;-73
2022/02/21 03:00:45;;;;;;;14.00;3.58;;;;;;;;;;5055604;28;20118;-72
2022/02/21 03:03:11;;;;;;;13.00;2.75;;;;;;;;;;5073105;28;20024;-72
2022/02/21 03:05:37;;;;;;;15.65;3.22;;;;;;;;;;5055699;28;20077;-72
2022/02/21 03:08:04;;;;;;;14.50;3.03;;;;;;;;;;5073445;28;20028;-74
2022/02/21 03:10:30;;;;;;;13.05;3.20;;;;;;;;;;5073592;28;20064;-75
2022/02/21 03:12:55;;;;;;;14.43;3.28;;;;;;;;;;5073040;28;20056;-74
2022/02/21 03:15:21;;;;;;;11.55;2.70;;;;;;;;;;5073402;28;20380;-73
2022/02/21 03:17:47;;;;;;;13.73;2.95;;;;;;;;;;5069817;28;20105;-74
2022/02/21 03:20:13;;;;;;;12.25;3.05;;;;;;;;;;5053080;28;20437;-74
2022/02/21 03:22:40;;;;;;;16.63;3.15;;;;;;;;;;5052734;28;20029;-73
2022/02/21 03:25:06;;;;;;;12.52;3.47;;;;;;;;;;5053685;28;20028;-71
2022/02/21 03:27:32;;;;;;;11.45;2.97;;;;;;;;;;5053657;28;20056;-73
2022/02/21 03:29:58;;;;;;;10.52;2.67;;;;;;;;;;5035405;28;20126;-73
2022/02/21 03:32:24;;;;;;;15.15;2.95;;;;;;;;;;5053149;28;20103;-72
2022/02/21 03:34:50;;;;;;;13.68;3.30;;;;;;;;;;5053076;28;20032;-73
2022/02/21 03:37:16;;;;;;;12.98;3.10;;;;;;;;;;5052926;28;20377;-71
2022/02/21 03:39:42;;;;;;;16.50;3.40;;;;;;;;;;5053172;28;20029;-71
2022/02/21 03:42:08;;;;;;;17.75;3.47;;;;;;;;;;5054287;28;20037;-70
2022/02/21 03:44:34;;;;;;;11.88;2.85;;;;;;;;;;5057553;28;20024;-70
2022/02/21 03:47:00;;;;;;;11.43;2.90;;;;;;;;;;5056781;28;20028;-73
2022/02/21 03:49:26;;;;;;;19.45;3.38;;;;;;;;;;5057489;28;20028;-73
2022/02/21 03:51:52;;;;;;;13.52;3.08;;;;;;;;;;5057095;28;20025;-73
2022/02/21 03:54:18;;;;;;;17.33;3.40;;;;;;;;;;5057646;28;20021;-74
2022/02/21 03:56:44;;;;;;;13.68;2.97;;;;;;;;;;5057890;28;20040;-75
2022/02/21 03:59:10;;;;;;;14.73;2.95;;;;;;;;;;5058115;28;20078;-74
2022/02/21 04:01:36;;;;;;;13.85;3.10;;;;;;;;;;5057227;28;20131;-76
2022/02/21 04:04:01;;;;;;;15.10;3.05;;;;;;;;;;5057022;28;20021;-74
2022/02/21 04:06:28;;;;;;;17.33;2.97;;;;;;;;;;5057497;28;20122;-75
2022/02/21 04:08:54;;;;;;;15.00;2.97;;;;;;;;;;5041904;28;20020;-73
2022/02/21 04:11:20;;;;;;;13.82;2.80;;;;;;;;;;5062049;28;20374;-75
2022/02/21 04:13:46;;;;;;;14.40;3.40;;;;;;;;;;5056818;28;20479;-74
2022/02/21 04:16:11;;;;;;;11.95;3.08;;;;;;;;;;5056357;28;20029;-72
2022/02/21 04:18:37;;;;;;;16.67;3.33;;;;;;;;;;5038604;28;20536;-72
2022/02/21 04:21:03;;;;;;;11.52;2.67;;;;;;;;;;5038516;28;20049;-72
2022/02/21 04:23:29;;;;;;;10.00;2.55;;;;;;;;;;5056501;28;20082;-73
2022/02/21 04:25:55;;;;;;;9.55;2.63;;;;;;;;;;5038450;28;20025;-72
2022/02/21 04:28:21;;;;;;;10.52;2.60;;;;;;;;;;5056911;28;20021;-72
2022/02/21 04:30:47;;;;;;;11.88;2.38;;;;;;;;;;5056423;28;20021;-72
2022/02/21 04:33:13;;;;;;;13.60;2.65;;;;;;;;;;5056446;28;20083;-71
2022/02/21 04:35:39;;;;;;;10.02;2.50;;;;;;;;;;5056201;28;20021;-71
2022/02/21 04:38:05;;;;;;;10.20;2.50;;;;;;;;;;5056303;28;20055;-71
2022/02/21 04:40:31;;;;;;;15.43;2.90;;;;;;;;;;5056061;28;20079;-70
2022/02/21 04:42:58;;;;;;;10.38;2.65;;;;;;;;;;5038217;28;20444;-72
2022/02/21 04:45:24;;;;;;;11.38;2.25;;;;;;;;;;5056345;28;20025;-73
2022/02/21 04:47:51;;;;;;;10.95;2.53;;;;;;;;;;5038341;28;20033;-74
2022/02/21 04:50:17;;;;;;;8.45;2.67;;;;;;;;;;5055720;28;20032;-74
2022/02/21 04:52:43;;;;;;;11.27;2.92;;;;;;;;;;5055091;28;20021;-72
2022/02/21 04:55:11;;;;;;;8.88;2.33;;;;;;;;;;5037550;28;20039;-71
2022/02/21 04:57:37;;;;;;;13.60;2.80;;;;;;;;;;5055910;28;20021;-74
2022/02/21 05:00:04;;;;;;;13.13;2.70;;;;;;;;;;5056703;28;20052;-72
2022/02/21 05:02:30;;;;;;;11.15;2.17;;;;;;;;;;5056255;28;20108;-73
2022/02/21 05:04:58;;;;;;;11.45;2.53;;;;;;;;;;5038417;28;20079;-76
2022/02/21 05:07:24;;;;;;;13.25;2.42;;;;;;;;;;5057299;28;20032;-70
2022/02/21 05:09:50;;;;;;;9.70;2.20;;;;;;;;;;5056405;28;20025;-70
2022/02/21 05:12:16;;;;;;;11.13;2.08;;;;;;;;;;5055416;28;20033;-70
2022/02/21 05:14:42;;;;;;;9.05;2.22;;;;;;;;;;5066150;28;20107;-70
2022/02/21 05:17:08;;;;;;;9.93;2.25;;;;;;;;;;5075342;28;20434;-73
2022/02/21 05:19:34;;;;;;;11.00;2.00;;;;;;;;;;5057367;28;20020;-72
2022/02/21 05:22:01;;;;;;;9.40;2.13;;;;;;;;;;5075040;28;20106;-72
2022/02/21 05:24:27;;;;;;;9.35;2.58;;;;;;;;;;5056841;28;20028;-71
2022/02/21 05:26:53;;;;;;;12.57;2.72;;;;;;;;;;5055877;28;20388;-72
2022/02/21 05:29:19;;;;;;;12.20;2.40;;;;;;;;;;5055168;28;20017;-74
2022/02/21 05:31:46;;;;;;;8.23;2.20;;;;;;;;;;5055743;28;20024;-74
2022/02/21 05:34:12;;;;;;;8.77;2.35;;;;;;;;;;5075116;28;20066;-72
2022/02/21 05:36:38;;;;;;;10.65;2.35;;;;;;;;;;5057503;28;20025;-72
2022/02/21 05:39:04;;;;;;;12.43;2.60;;;;;;;;;;5074688;28;20032;-74
2022/02/21 05:41:30;;;;;;;7.97;2.22;;;;;;;;;;5074869;28;20043;-70
2022/02/21 05:43:56;;;;;;;6.78;2.42;;;;;;;;;;5075245;28;20460;-73
2022/02/21 05:46:22;;;;;;;7.00;1.98;;;;;;;;;;5054788;28;20055;-70
2022/02/21 05:48:51;;;;;;;8.77;2.63;;;;;;;;;;5056899;28;20040;-70
2022/02/21 05:51:17;;;;;;;8.05;2.10;;;;;;;;;;5078141;28;20024;-75
2022/02/21 05:53:47;;;;;;;8.55;1.95;;;;;;;;;;5060519;28;20031;-75
2022/02/21 05:56:14;;;;;;;9.82;2.40;;;;;;;;;;5057201;28;20098;-73
2022/02/21 05:58:40;;;;;;;11.63;2.35;;;;;;;;;;5074519;28;20033;-72
2022/02/21 06:01:08;;;;;;;9.82;2.65;;;;;;;;;;5061042;28;20024;-74
2022/02/21 06:03:34;;;;;;;13.10;2.70;;;;;;;;;;5044821;28;20051;-70
2022/02/21 06:06:01;;;;;;;11.90;2.78;;;;;;;;;;5080151;28;20557;-75
2022/02/21 06:08:28;;;;;;;11.93;2.53;;;;;;;;;;5059371;28;20024;-75
2022/02/21 06:10:55;;;;;;;11.90;2.35;;;;;;;;;;5044752;28;20024;-74
2022/02/21 06:13:26;;;;;;;9.18;2.58;;;;;;;;;;5060885;28;20035;-74
2022/02/21 06:15:52;;;;;;;9.05;2.13;;;;;;;;;;5070747;28;20029;-72
2022/02/21 06:18:18;;;;;;;13.82;2.53;;;;;;;;;;5041765;28;20104;-73
2022/02/21 06:20:44;;;;;;;11.20;2.85;;;;;;;;;;5060023;28;20046;-73
2022/02/21 06:23:10;;;;;;;13.60;2.42;;;;;;;;;;5062825;28;20017;-71
2022/02/21 06:25:38;;;;;;;19.30;2.70;;;;;;;;;;5061850;28;20692;-69
2022/02/21 06:28:04;;;;;;;25.08;3.22;;;;;;;;;;5061807;28;20078;-69
2022/02/21 06:30:30;;;;;;;20.20;2.88;;;;;;;;;;5067018;28;20098;-70
2022/02/21 06:32:56;;;;;;;18.20;3.33;;;;;;;;;;5065483;28;20440;-73
2022/02/21 06:35:22;;;;;;;14.10;2.55;;;;;;;;;;5073730;28;20032;-68
2022/02/21 06:37:49;;;;;;;18.08;2.97;;;;;;;;;;5046793;28;20713;-70
2022/02/21 06:40:15;;;;;;;26.83;3.00;;;;;;;;;;5066208;28;20112;-76
2022/02/21 06:42:42;;;;;;;40.78;4.00;;;;;;;;;;5055662;28;20507;-72
2022/02/21 06:45:08;;;;;;;19.40;3.05;;;;;;;;;;5062339;28;20028;-68
2022/02/21 06:47:35;;;;;;;21.30;3.47;;;;;;;;;;5065309;28;20027;-67
2022/02/21 06:50:04;;;;;;;20.80;3.47;;;;;;;;;;5041267;28;20115;-68
2022/02/21 06:52:31;;;;;;;21.50;3.20;;;;;;;;;;5062892;28;20036;-71
2022/02/21 06:54:57;;;;;;;30.52;3.63;;;;;;;;;;5054636;28;20082;-74
2022/02/21 06:57:24;;;;;;;26.40;3.67;;;;;;;;;;5064636;28;20020;-72
2022/02/21 06:59:50;;;;;;;19.48;3.38;;;;;;;;;;5052614;28;20086;-72
2022/02/21 07:02:16;;;;;;;16.35;3.53;;;;;;;;;;5052941;28;20037;-76
2022/02/21 07:04:42;;;;;;;14.18;2.80;;;;;;;;;;5052442;28;20032;-67
2022/02/21 07:07:08;;;;;;;13.45;2.92;;;;;;;;;;5056859;28;20047;-74
2022/02/21 07:09:34;;;;;;;22.17;3.58;;;;;;;;;;5066005;28;20028;-72
2022/02/21 07:12:00;;;;;;;21.70;3.05;;;;;;;;;;5043111;28;20488;-72
2022/02/21 07:14:26;;;;;;;17.52;3.22;;;;;;;;;;5052483;28;20103;-73
2022/02/21 07:16:53;;;;;;;21.08;2.97;;;;;;;;;;5052162;28;20017;-75
2022/02/21 07:19:19;;;;;;;17.55;3.10;;;;;;;;;;5052384;28;20464;-68
2022/02/21 07:21:45;;;;;;;16.05;2.80;;;;;;;;;;5050422;28;20091;-66
2022/02/21 07:24:11;;;;;;;15.20;2.70;;;;;;;;;;5051697;28;20040;-66
2022/02/21 07:26:38;;;;;;;13.68;3.55;;;;;;;;;;5068905;28;20483;-65
2022/02/21 07:29:04;;;;;;;17.80;3.35;;;;;;;;;;5047983;28;20123;-67
2022/02/21 07:31:32;;;;;;;13.35;2.70;;;;;;;;;;5045523;28;20553;-67
2022/02/21 07:33:59;;;;;;;10.48;2.72;;;;;;;;;;5072489;28;20028;-65
2022/02/21 07:36:25;;;;;;;21.77;3.05;;;;;;;;;;5072306;28;20024;-65
2022/02/21 07:38:52;;;;;;;16.27;3.00;;;;;;;;;;5071830;28;20210;-67
2022/02/21 07:41:18;;;;;;;15.88;3.22;;;;;;;;;;5071981;28;20032;-68
2022/02/21 07:43:44;;;;;;;14.70;2.58;;;;;;;;;;5038753;28;20491;-65
2022/02/21 07:46:10;;;;;;;14.27;3.35;;;;;;;;;;5054901;28;20388;-65
2022/02/21 07:48:36;;;;;;;14.70;3.00;;;;;;;;;;5051681;28;20025;-70
2022/02/21 07:51:02;;;;;;;16.73;3.08;;;;;;;;;;5052128;28;20044;-67
2022/02/21 07:53:28;;;;;;;16.02;3.10;;;;;;;;;;5051897;28;20029;-65
2022/02/21 07:55:54;;;;;;;20.40;3.50;;;;;;;;;;5053010;28;20021;-73
2022/02/21 07:58:20;;;;;;;19.00;3.50;;;;;;;;;;5034467;28;20338;-75
2022/02/21 08:00:46;;;;;;;12.70;3.17;;;;;;;;;;5052767;28;20024;-73
2022/02/21 08:03:12;;;;;;;17.02;3.80;;;;;;;;;;5060565;28;20036;-73
2022/02/21 08:05:38;;;;;;;19.83;3.65;;;;;;;;;;5052535;28;20374;-75
2022/02/21 08:08:05;;;;;;;16.08;3.90;;;;;;;;;;5052470;28;20392;-73
2022/02/21 08:10:31;;;;;;;14.15;3.97;;;;;;;;;;5052446;28;20025;-75
2022/02/21 08:12:57;;;;;;;16.50;3.83;;;;;;;;;;5052208;28;20082;-74
2022/02/21 08:15:23;;;;;;;16.40;3.30;;;;;;;;;;5034227;28;20055;-74
2022/02/21 08:17:49;;;;;;;20.60;3.90;;;;;;;;;;5052222;28;20108;-71
2022/02/21 08:20:16;;;;;;;14.68;3.55;;;;;;;;;;5051823;28;20116;-71
2022/02/21 08:22:43;;;;;;;14.15;3.55;;;;;;;;;;5060544;28;20065;-73
2022/02/21 08:25:09;;;;;;;16.35;3.80;;;;;;;;;;5034793;28;20025;-72
2022/02/21 08:27:37;;;;;;;19.15;4.22;;;;;;;;;;5052715;28;20028;-71
2022/02/21 08:30:04;;;;;;;18.48;3.80;;;;;;;;;;5056075;28;20422;-72
2022/02/21 08:32:30;;;;;;;18.70;4.15;;;;;;;;;;5037863;28;20028;-73
2022/02/21 08:34:56;;;;;;;14.38;3.58;;;;;;;;;;5037890;28;20021;-73
2022/02/21 08:37:22;;;;;;;17.25;3.70;;;;;;;;;;5055761;28;20029;-72
2022/02/21 08:39:49;;;;;;;17.13;4.05;;;;;;;;;;5037751;28;20472;-72
2022/02/21 08:42:15;;;;;;;16.90;4.28;;;;;;;;;;5058642;28;20020;-71
2022/02/21 08:44:41;;;;;;;19.27;4.75;;;;;;;;;;5075779;28;20024;-72
2022/02/21 08:47:07;;;;;;;20.13;4.32;;;;;;;;;;5075943;28;20032;-73
2022/02/21 08:49:33;;;;;;;18.88;3.90;;;;;;;;;;5057962;28;20373;-72
2022/02/21 08:51:59;;;;;;;16.33;3.85;;;;;;;;;;5075566;28;20405;-73
2022/02/21 08:54:26;;;;;;;19.27;4.50;;;;;;;;;;5075610;28;20600;-72
2022/02/21 08:56:52;;;;;;;15.77;3.88;;;;;;;;;;5075922;28;20025;-72
2022/02/21 08:59:18;;;;;;;14.23;3.55;;;;;;;;;;5075892;28;20038;-73
2022/02/21 09:01:45;;;;;;;20.50;4.53;;;;;;;;;;5075294;28;20039;-73
2022/02/21 09:04:12;;;;;;;17.95;3.65;;;;;;;;;;5075451;28;20111;-72
2022/02/21 09:06:38;;;;;;;15.63;4.00;;;;;;;;;;5075814;28;20035;-72
2022/02/21 09:09:04;;;;;;;15.00;3.83;;;;;;;;;;5074940;28;20017;-72
2022/02/21 09:11:30;;;;;;;19.60;4.88;;;;;;;;;;5075819;28;20028;-73
2022/02/21 09:13:56;;;;;;;19.70;4.47;;;;;;;;;;5075730;28;20059;-73
2022/02/21 09:16:23;;;;;;;16.85;4.55;;;;;;;;;;5055404;28;20025;-73
2022/02/21 09:18:49;;;;;;;19.00;4.38;;;;;;;;;;5078866;28;20029;-72
2022/02/21 09:21:16;;;;;;;21.83;4.35;;;;;;;;;;5079020;28;20147;-73
2022/02/21 09:23:42;;;;;;;25.67;4.57;;;;;;;;;;5059767;28;20028;-72
2022/02/21 09:26:08;;;;;;;23.70;4.40;;;;;;;;;;5061377;28;20034;-72
2022/02/21 09:28:34;;;;;;;18.95;4.38;;;;;;;;;;5078183;28;20095;-75
2022/02/21 09:31:00;;;;;;;18.95;4.22;;;;;;;;;;5075820;28;20491;-73
2022/02/21 09:33:27;;;;;;;30.67;4.22;;;;;;;;;;5057608;28;20025;-75
2022/02/21 09:35:53;;;;;;;27.25;5.03;;;;;;;;;;5075429;28;20082;-74
2022/02/21 09:38:19;;;;;;;25.92;4.38;;;;;;;;;;5075379;28;20082;-75
2022/02/21 09:40:48;;;;;;;19.63;4.22;;;;;;;;;;5075760;28;20055;-74
2022/02/21 09:43:14;;;;;;;22.38;4.30;;;;;;;;;;5075335;28;20067;-74
2022/02/21 09:45:44;;;;;;;22.10;4.40;;;;;;;;;;5067997;28;20082;-74
2022/02/21 09:48:14;;;;;;;19.73;4.10;;;;;;;;;;5056109;28;20051;-69
2022/02/21 09:50:40;;;;;;;21.05;3.92;;;;;;;;;;5055659;28;20074;-75
2022/02/21 09:53:07;;;;;;;18.65;4.20;;;;;;;;;;5055008;28;20031;-76
2022/02/21 09:55:34;;;;;;;23.20;4.50;;;;;;;;;;5054851;28;20021;-78
2022/02/21 09:58:01;;;;;;;27.15;4.85;;;;;;;;;;5054799;28;20417;-76
2022/02/21 10:00:26;;;;;;;23.63;4.35;;;;;;;;;;5055263;28;20052;-74
2022/02/21 10:02:53;;;;;;;24.00;5.13;;;;;;;;;;5036672;28;20029;-75
2022/02/21 10:05:25;;;;;;;24.60;5.18;;;;;;;;;;5054347;28;20025;-77
2022/02/21 10:08:08;;;;;;;23.40;4.32;;;;;;;;;;5041931;28;20032;-77
2022/02/21 10:10:40;;;;;;;25.77;5.43;;;;;;;;;;5055354;28;20108;-76
2022/02/21 10:13:06;;;;;;;26.90;5.50;;;;;;;;;;5055179;28;20025;-75
2022/02/21 10:15:33;;;;;;;21.17;4.13;;;;;;;;;;5036383;28;20025;-75
2022/02/21 10:18:16;;;;;;;24.73;4.53;;;;;;;;;;5053444;28;20081;-78
2022/02/21 10:20:58;;;;;;;22.55;5.57;;;;;;;;;;5053581;28;20037;-79
2022/02/21 10:23:25;;;;;;;27.40;5.47;;;;;;;;;;5053559;28;20075;-77
2022/02/21 10:25:55;;;;;;;20.55;4.55;;;;;;;;;;5053483;28;20033;-77
2022/02/21 10:28:29;;;;;;;31.00;5.50;;;;;;;;;;5035455;28;20067;-74
2022/02/21 10:31:13;;;;;;;27.35;5.53;;;;;;;;;;5053351;28;20029;-77
2022/02/21 10:33:40;;;;;;;27.17;5.13;;;;;;;;;;5053550;28;20021;-76
2022/02/21 10:36:26;;;;;;;22.80;5.22;;;;;;;;;;5053592;28;20095;-77
2022/02/21 10:38:52;;;;;;;24.30;5.30;;;;;;;;;;5058865;28;20071;-75
2022/02/21 10:41:21;;;;;;;20.88;5.10;;;;;;;;;;5059988;28;20063;-77
2022/02/21 10:43:47;;;;;;;22.20;4.55;;;;;;;;;;5058672;28;20049;-75
2022/02/21 10:46:13;;;;;;;21.23;4.75;;;;;;;;;;5053399;28;20029;-70
2022/02/21 10:48:43;;;;;;;19.13;4.78;;;;;;;;;;5058322;28;20036;-72
2022/02/21 10:51:10;;;;;;;22.05;4.90;;;;;;;;;;5052779;28;20478;-78
2022/02/21 10:53:36;;;;;;;21.02;4.90;;;;;;;;;;5053188;28;20025;-77
2022/02/21 10:56:03;;;;;;;20.25;4.82;;;;;;;;;;5063253;28;20028;-76
2022/02/21 10:58:29;;;;;;;19.08;4.32;;;;;;;;;;5072944;28;20027;-71
2022/02/21 11:00:55;;;;;;;25.48;4.78;;;;;;;;;;5055366;28;20051;-78
2022/02/21 11:03:27;;;;;;;21.83;4.80;;;;;;;;;;5056243;28;20035;-68
2022/02/21 11:05:55;;;;;;;24.85;4.90;;;;;;;;;;5078798;28;20025;-67
2022/02/21 11:08:21;;;;;;;21.10;4.53;;;;;;;;;;5076953;28;20190;-75
2022/02/21 11:10:48;;;;;;;18.13;4.63;;;;;;;;;;5038826;28;20043;-78
2022/02/21 11:13:16;;;;;;;17.23;3.90;;;;;;;;;;5052299;28;20048;-75
2022/02/21 11:15:42;;;;;;;24.92;5.18;;;;;;;;;;5052989;28;20037;-76
2022/02/21 11:18:17;;;;;;;22.63;4.20;;;;;;;;;;5035149;28;20103;-78
2022/02/21 11:20:43;;;;;;;23.52;5.70;;;;;;;;;;5052845;28;20041;-79
2022/02/21 11:23:10;;;;;;;19.58;4.53;;;;;;;;;;5052466;28;20036;-76
2022/02/21 11:25:42;;;;;;;20.15;4.22;;;;;;;;;;5052882;28;20099;-76
2022/02/21 11:28:14;;;;;;;24.33;4.53;;;;;;;;;;5052713;28;20056;-78
2022/02/21 11:30:43;;;;;;;16.00;4.15;;;;;;;;;;5061054;28;20029;-75
2022/02/21 11:33:13;;;;;;;21.75;5.10;;;;;;;;;;5034680;28;20033;-78
2022/02/21 11:35:57;;;;;;;21.13;4.60;;;;;;;;;;5052617;28;20028;-78
2022/02/21 11:38:25;;;;;;;22.45;4.75;;;;;;;;;;5034767;28;20495;-74
2022/02/21 11:40:57;;;;;;;19.40;4.72;;;;;;;;;;5052209;28;20033;-79
2022/02/21 11:43:27;;;;;;;16.85;4.63;;;;;;;;;;5034698;28;20109;-78
2022/02/21 11:46:01;;;;;;;22.58;5.18;;;;;;;;;;5034567;28;20036;-74
2022/02/21 11:48:47;;;;;;;21.17;5.00;;;;;;;;;;5037547;28;20408;-77
2022/02/21 11:51:24;;;;;;;19.38;4.28;;;;;;;;;;5052606;28;20022;-78
2022/02/21 11:53:50;;;;;;;26.92;4.95;;;;;;;;;;5053553;28;20087;-78
2022/02/21 11:56:16;;;;;;;18.38;4.38;;;;;;;;;;5035565;28;20017;-78
2022/02/21 11:58:45;;;;;;;21.45;5.13;;;;;;;;;;5053265;28;20132;-78
2022/02/21 12:01:12;;;;;;;24.95;5.10;;;;;;;;;;5053137;28;20072;-77
2022/02/21 12:03:38;;;;;;;20.85;4.93;;;;;;;;;;5054825;28;20515;-74
2022/02/21 12:06:04;;;;;;;24.80;5.45;;;;;;;;;;5057639;28;20032;-78
2022/02/21 12:08:30;;;;;;;22.05;5.22;;;;;;;;;;5059023;28;20419;-77
2022/02/21 12:11:03;;;;;;;23.48;5.20;;;;;;;;;;5058465;28;20403;-78
2022/02/21 12:13:29;;;;;;;32.35;7.63;;;;;;;;;;5079283;28;20029;-78
2022/02/21 12:16:06;;;;;;;32.28;10.00;;;;;;;;;;5060040;28;20082;-79
2022/02/21 12:18:38;;;;;;;52.78;17.63;;;;;;;;;;5038273;28;20029;-78
2022/02/21 12:21:19;;;;;;;52.75;17.75;;;;;;;;;;5056006;28;20102;-77
2022/02/21 12:24:00;;;;;;;53.35;17.50;;;;;;;;;;5056751;28;20035;-72
2022/02/21 12:26:27;;;;;;;49.95;15.43;;;;;;;;;;5056733;28;20013;-77
2022/02/21 12:29:07;;;;;;;58.92;16.83;;;;;;;;;;5056443;28;20027;-78
2022/02/21 12:31:33;;;;;;;54.40;16.02;;;;;;;;;;5056260;28;20074;-74
2022/02/21 12:33:59;;;;;;;53.25;15.43;;;;;;;;;;5038496;28;20067;-74
2022/02/21 12:36:33;;;;;;;53.63;14.98;;;;;;;;;;5056540;28;20021;-81
2022/02/21 12:39:00;;;;;;;43.42;14.75;;;;;;;;;;5056418;28;20025;-77
2022/02/21 12:41:36;;;;;;;39.10;14.38;;;;;;;;;;5056474;28;20029;-76
2022/02/21 12:44:06;;;;;;;39.33;13.57;;;;;;;;;;5073761;28;20476;-78
2022/02/21 12:46:39;;;;;;;47.97;14.82;;;;;;;;;;5076157;28;20103;-80
2022/02/21 12:49:07;;;;;;;37.67;12.88;;;;;;;;;;5076843;28;20555;-69
2022/02/21 12:51:34;;;;;;;38.78;12.43;;;;;;;;;;5075500;28;20380;-71
2022/02/21 12:54:05;;;;;;;34.75;12.57;;;;;;;;;;5057836;28;20020;-71
2022/02/21 12:56:41;;;;;;;37.78;12.02;;;;;;;;;;5076106;28;20024;-69
2022/02/21 12:59:07;;;;;;;40.38;11.05;;;;;;;;;;5075187;28;20090;-69
2022/02/21 13:01:33;;;;;;;35.90;10.93;;;;;;;;;;5075196;28;20396;-69
2022/02/21 13:04:01;;;;;;;30.85;9.77;;;;;;;;;;5075354;28;20464;-68
2022/02/21 13:06:27;;;;;;;32.00;9.63;;;;;;;;;;5074926;28;20024;-69
2022/02/21 13:08:54;;;;;;;30.65;9.57;;;;;;;;;;5057409;28;20020;-69
2022/02/21 13:11:25;;;;;;;28.25;8.15;;;;;;;;;;5075287;28;20046;-69
2022/02/21 13:13:52;;;;;;;42.00;9.63;;;;;;;;;;5074609;28;20024;-69
2022/02/21 13:16:18;;;;;;;31.25;8.40;;;;;;;;;;5075247;28;20055;-71
2022/02/21 13:18:47;;;;;;;27.23;8.27;;;;;;;;;;5074838;28;20031;-76
2022/02/21 13:21:13;;;;;;;23.83;7.55;;;;;;;;;;5074823;28;20050;-69
2022/02/21 13:23:39;;;;;;;24.95;7.35;;;;;;;;;;5075732;28;20021;-76
2022/02/21 13:26:05;;;;;;;23.48;6.95;;;;;;;;;;5075274;28;20495;-77
2022/02/21 13:28:31;;;;;;;23.38;6.55;;;;;;;;;;5075754;28;20028;-72
2022/02/21 13:31:04;;;;;;;20.98;6.35;;;;;;;;;;5070064;28;20051;-69
2022/02/21 13:33:30;;;;;;;;;;;;;;;;;;5075282;28;20035;-70
2022/02/21 13:35:59;;;;;;;18.15;6.00;;;;;;;;;;5074948;28;19958;-71
2022/02/21 13:38:25;;;;;;;23.15;6.60;;;;;;;;;;5074664;28;20020;-67
2022/02/21 13:41:06;;;;;;;22.40;6.00;;;;;;;;;;5057093;28;20060;-72
2022/02/21 13:43:32;;;;;;;23.55;5.70;;;;;;;;;;5074416;28;20024;-74
2022/02/21 13:45:58;;;;;;;25.75;6.00;;;;;;;;;;5056744;28;20033;-71
2022/02/21 13:48:26;;;;;;;20.45;5.95;;;;;;;;;;5055065;28;20013;-69
2022/02/21 13:50:55;;;;;;;16.52;5.28;;;;;;;;;;5035296;28;20507;-71
2022/02/21 13:53:27;;;;;;;16.40;4.60;;;;;;;;;;5054013;28;20059;-68
2022/02/21 13:56:11;;;;;;;19.73;6.00;;;;;;;;;;5053959;28;20082;-74
2022/02/21 13:58:37;;;;;;;21.58;5.55;;;;;;;;;;5054464;28;20078;-71
2022/02/21 14:01:11;;;;;;;16.63;5.03;;;;;;;;;;5054316;28;20029;-73
2022/02/21 14:03:41;;;;;;;18.15;5.22;;;;;;;;;;5054221;28;20027;-73
2022/02/21 14:06:07;;;;;;;16.90;4.80;;;;;;;;;;5054306;28;20476;-74
2022/02/21 14:08:39;;;;;;;15.82;4.28;;;;;;;;;;5036114;28;20055;-71
2022/02/21 14:11:06;;;;;;;18.58;4.78;;;;;;;;;;5054088;28;20021;-73
2022/02/21 14:13:32;;;;;;;14.82;4.47;;;;;;;;;;5053589;28;20036;-72
2022/02/21 14:15:59;;;;;;;13.95;4.40;;;;;;;;;;5053887;28;20017;-70
2022/02/21 14:18:25;;;;;;;12.48;3.40;;;;;;;;;;5054224;28;20091;-72
2022/02/21 14:20:51;;;;;;;18.50;4.53;;;;;;;;;;5054912;28;20052;-80
2022/02/21 14:23:17;;;;;;;22.48;3.97;;;;;;;;;;5035877;28;20025;-79
2022/02/21 14:25:43;;;;;;;19.13;3.75;;;;;;;;;;5053123;28;20024;-71
2022/02/21 14:28:09;;;;;;;23.27;3.83;;;;;;;;;;5053573;28;20021;-78
2022/02/21 14:30:36;;;;;;;16.38;3.85;;;;;;;;;;5035589;28;20039;-76